sensor_id;sensor_type;location;lat;lon;timestamp;pressure;altitude;pressure_sealevel;temperature;humidity
53758;BME280;39674;59.860;30.672;2024-02-26T00:02:27;101216.28;;;1.57;100.00
53758;BME280;39674;59.860;30.672;2024-02-26T00:05:58;101154.06;;;1.12;100.00
53758;BME280;39674;59.860;30.672;2024-02-26T00:09:03;101259.53;;;1.79;100.00
53758;BME280;39674;59.860;30.672;2024-02-26T00:12:50;101154.06;;;1.12;100.00
53758;BME280;39674;59.860;30.672;2024-02-26T00:16:18;101130.69;;;1.03;100.00
53758;BME280;39674;59.860;30.672;2024-02-26T00:19:36;101147.16;;;1.08;100.00
53758;BME280;39674;59.860;30.672;2024-02-26T00:23:03;101181.69;;;1.35;100.00
53758;BME280;39674;59.860;30.672;2024-02-26T00:26:43;101167.84;;;1.30;100.00
53758;BME280;39674;59.860;30.672;2024-02-26T00:29:52;101127.19;;;1.09;100.00
53758;BME280;39674;59.860;30.672;2024-02-26T00:40:49;101242.19;;;1.77;100.00
53758;BME280;39674;59.860;30.672;2024-02-26T00:44:12;101136.78;;;1.02;100.00
53758;BME280;39674;59.860;30.672;2024-02-26T00:47:10;101249.13;;;1.74;100.00
53758;BME280;39674;59.860;30.672;2024-02-26T00:54:20;101243.13;;;1.67;100.00
53758;BME280;39674;59.860;30.672;2024-02-26T00:58:15;101226.66;;;1.59;100.00
53758;BME280;39674;59.860;30.672;2024-02-26T01:01:38;101254.38;;;1.72;100.00
53758;BME280;39674;59.860;30.672;2024-02-26T01:04:54;101168.72;;;1.27;100.00
53758;BME280;39674;59.860;30.672;2024-02-26T01:11:46;101152.34;;;1.13;100.00
53758;BME280;39674;59.860;30.672;2024-02-26T01:25:46;101229.22;;;1.70;100.00
53758;BME280;39674;59.860;30.672;2024-02-26T01:29:39;101150.50;;;1.26;100.00
53758;BME280;39674;59.860;30.672;2024-02-26T01:33:07;101126.34;;;1.04;100.00
53758;BME280;39674;59.860;30.672;2024-02-26T01:37:00;101110.81;;;0.94;100.00
53758;BME280;39674;59.860;30.672;2024-02-26T01:40:04;101117.72;;;0.97;100.00
53758;BME280;39674;59.860;30.672;2024-02-26T01:43:40;101152.28;;;1.24;100.00
53758;BME280;39674;59.860;30.672;2024-02-26T01:47:53;101099.50;;;0.95;100.00
53758;BME280;39674;59.860;30.672;2024-02-26T01:50:55;101107.31;;;0.97;100.00
53758;BME280;39674;59.860;30.672;2024-02-26T01:54:30;101119.44;;;0.98;100.00
53758;BME280;39674;59.860;30.672;2024-02-26T01:58:34;101098.66;;;0.93;100.00
53758;BME280;39674;59.860;30.672;2024-02-26T02:05:22;101095.22;;;0.90;100.00
53758;BME280;39674;59.860;30.672;2024-02-26T02:12:59;101109.91;;;0.99;100.00
53758;BME280;39674;59.860;30.672;2024-02-26T02:15:58;101108.19;;;0.93;100.00
53758;BME280;39674;59.860;30.672;2024-02-26T02:26:30;101209.31;;;1.58;100.00
53758;BME280;39674;59.860;30.672;2024-02-26T02:30:03;101086.56;;;0.88;100.00
53758;BME280;39674;59.860;30.672;2024-02-26T02:33:41;101074.44;;;0.80;100.00
53758;BME280;39674;59.860;30.672;2024-02-26T02:40:59;101078.81;;;0.80;100.00
53758;BME280;39674;59.860;30.672;2024-02-26T02:44:30;101124.56;;;1.14;100.00
53758;BME280;39674;59.860;30.672;2024-02-26T02:51:39;101160.91;;;1.29;100.00
53758;BME280;39674;59.860;30.672;2024-02-26T02:55:34;101084.81;;;0.87;100.00
53758;BME280;39674;59.860;30.672;2024-02-26T02:59:14;101079.66;;;0.80;100.00
53758;BME280;39674;59.860;30.672;2024-02-26T03:07:18;101068.41;;;0.77;100.00
53758;BME280;39674;59.860;30.672;2024-02-26T03:11:00;101185.09;;;1.50;100.00
53758;BME280;39674;59.860;30.672;2024-02-26T03:14:52;101131.47;;;1.21;100.00
53758;BME280;39674;59.860;30.672;2024-02-26T03:18:34;101174.69;;;1.47;100.00
53758;BME280;39674;59.860;30.672;2024-02-26T03:26:33;101129.72;;;1.23;100.00
53758;BME280;39674;59.860;30.672;2024-02-26T03:34:07;101062.34;;;0.73;100.00
53758;BME280;39674;59.860;30.672;2024-02-26T03:38:25;101179.03;;;1.48;100.00
53758;BME280;39674;59.860;30.672;2024-02-26T03:49:55;101064.91;;;0.83;100.00
53758;BME280;39674;59.860;30.672;2024-02-26T03:53:25;101136.66;;;1.24;100.00
53758;BME280;39674;59.860;30.672;2024-02-26T03:57:11;101122.78;;;1.19;100.00
53758;BME280;39674;59.860;30.672;2024-02-26T04:00:26;101045.91;;;0.71;100.00
53758;BME280;39674;59.860;30.672;2024-02-26T04:04:33;101051.94;;;0.76;100.00
53758;BME280;39674;59.860;30.672;2024-02-26T04:08:40;101026.03;;;0.61;100.00
53758;BME280;39674;59.860;30.672;2024-02-26T04:12:12;101042.44;;;0.71;100.00
53758;BME280;39674;59.860;30.672;2024-02-26T04:16:15;101038.13;;;0.71;100.00
53758;BME280;39674;59.860;30.672;2024-02-26T04:20:04;101121.00;;;1.27;100.00
53758;BME280;39674;59.860;30.672;2024-02-26T04:35:05;101089.88;;;1.13;100.00
53758;BME280;39674;59.860;30.672;2024-02-26T04:37:53;101020.78;;;0.67;100.00
53758;BME280;39674;59.860;30.672;2024-02-26T04:41:22;101008.69;;;0.63;100.00
53758;BME280;39674;59.860;30.672;2024-02-26T04:44:19;101014.75;;;0.65;100.00
53758;BME280;39674;59.860;30.672;2024-02-26T04:58:49;101007.84;;;0.58;100.00
53758;BME280;39674;59.860;30.672;2024-02-26T05:01:46;101022.56;;;0.59;100.00
53758;BME280;39674;59.860;30.672;2024-02-26T05:04:57;101079.59;;;0.93;100.00
53758;BME280;39674;59.860;30.672;2024-02-26T05:08:01;101023.41;;;0.64;100.00
53758;BME280;39674;59.860;30.672;2024-02-26T05:16:40;101037.25;;;0.66;100.00
53758;BME280;39674;59.860;30.672;2024-02-26T05:20:57;101035.56;;;0.60;100.00
53758;BME280;39674;59.860;30.672;2024-02-26T05:28:35;101153.97;;;1.33;100.00
53758;BME280;39674;59.860;30.672;2024-02-26T05:35:45;101032.94;;;0.65;100.00
53758;BME280;39674;59.860;30.672;2024-02-26T05:38:52;101090.84;;;0.96;100.00
53758;BME280;39674;59.860;30.672;2024-02-26T05:41:45;101119.41;;;1.10;100.00
53758;BME280;39674;59.860;30.672;2024-02-26T05:44:27;101029.50;;;0.60;100.00
53758;BME280;39674;59.860;30.672;2024-02-26T05:47:00;101062.34;;;0.76;100.00
53758;BME280;39674;59.860;30.672;2024-02-26T05:49:30;101092.59;;;0.96;100.00
53758;BME280;39674;59.860;30.672;2024-02-26T05:52:03;101098.63;;;1.04;100.00
53758;BME280;39674;59.860;30.672;2024-02-26T05:54:32;101012.19;;;0.53;100.00
53758;BME280;39674;59.860;30.672;2024-02-26T05:57:09;101057.97;;;0.82;100.00
53758;BME280;39674;59.860;30.672;2024-02-26T05:59:46;101061.44;;;0.85;100.00
53758;BME280;39674;59.860;30.672;2024-02-26T06:02:19;101054.50;;;0.87;100.00
53758;BME280;39674;59.860;30.672;2024-02-26T06:04:53;101026.84;;;0.69;100.00
53758;BME280;39674;59.860;30.672;2024-02-26T06:07:44;101126.22;;;1.27;100.00
53758;BME280;39674;59.860;30.672;2024-02-26T06:10:29;101014.75;;;0.63;100.00
53758;BME280;39674;59.860;30.672;2024-02-26T06:12:59;101075.22;;;0.96;100.00
53758;BME280;39674;59.860;30.672;2024-02-26T06:15:37;101129.69;;;1.29;100.00
53758;BME280;39674;59.860;30.672;2024-02-26T06:18:06;101066.66;;;0.84;100.00
53758;BME280;39674;59.860;30.672;2024-02-26T06:20:50;101054.50;;;0.83;100.00
53758;BME280;39674;59.860;30.672;2024-02-26T06:44:22;101003.44;;;0.69;100.00
53758;BME280;39674;59.860;30.672;2024-02-26T07:23:29;100994.00;;;0.53;100.00
53758;BME280;39674;59.860;30.672;2024-02-26T08:15:49;101018.94;;;0.88;100.00
53758;BME280;39674;59.860;30.672;2024-02-26T08:22:30;100968.84;;;0.59;100.00
53758;BME280;39674;59.860;30.672;2024-02-26T08:29:01;100954.09;;;0.60;100.00
53758;BME280;39674;59.860;30.672;2024-02-26T09:03:54;100942.88;;;0.58;100.00
53758;BME280;39674;59.860;30.672;2024-02-26T09:06:46;100972.25;;;0.69;100.00
53758;BME280;39674;59.860;30.672;2024-02-26T09:09:41;101000.78;;;0.82;100.00
53758;BME280;39674;59.860;30.672;2024-02-26T09:12:44;101036.94;;;1.17;100.00
53758;BME280;39674;59.860;30.672;2024-02-26T09:16:09;101038.69;;;1.14;100.00
53758;BME280;39674;59.860;30.672;2024-02-26T09:19:00;101013.72;;;0.91;100.00
53758;BME280;39674;59.860;30.672;2024-02-26T09:21:57;101090.56;;;1.41;100.00
53758;BME280;39674;59.860;30.672;2024-02-26T09:25:07;101059.53;;;1.12;100.00
53758;BME280;39674;59.860;30.672;2024-02-26T09:28:38;100982.69;;;0.60;100.00
53758;BME280;39674;59.860;30.672;2024-02-26T09:32:52;101098.41;;;1.32;100.00
53758;BME280;39674;59.860;30.672;2024-02-26T09:36:33;100967.13;;;0.54;100.00
53758;BME280;39674;59.860;30.672;2024-02-26T10:12:46;100951.56;;;0.51;100.00
53758;BME280;39674;59.860;30.672;2024-02-26T10:23:24;100964.53;;;0.58;100.00
53758;BME280;39674;59.860;30.672;2024-02-26T10:26:24;101080.28;;;1.20;100.00
53758;BME280;39674;59.860;30.672;2024-02-26T10:30:02;101013.78;;;0.82;100.00
53758;BME280;39674;59.860;30.672;2024-02-26T10:33:37;101053.47;;;1.13;100.00
53758;BME280;39674;59.860;30.672;2024-02-26T10:37:54;100948.06;;;0.58;100.00
53758;BME280;39674;59.860;30.672;2024-02-26T10:53:58;100974.00;;;0.66;100.00
53758;BME280;39674;59.860;30.672;2024-02-26T10:57:56;100948.13;;;0.47;100.00
53758;BME280;39674;59.860;30.672;2024-02-26T11:01:12;100942.09;;;0.43;100.00
53758;BME280;39674;59.860;30.672;2024-02-26T11:04:29;100954.19;;;0.47;100.00
53758;BME280;39674;59.860;30.672;2024-02-26T11:12:06;100936.94;;;0.36;100.00
53758;BME280;39674;59.860;30.672;2024-02-26T11:16:56;100968.91;;;0.52;100.00
53758;BME280;39674;59.860;30.672;2024-02-26T11:20:16;101027.59;;;0.91;100.00
53758;BME280;39674;59.860;30.672;2024-02-26T11:23:58;101073.38;;;1.20;100.00
53758;BME280;39674;59.860;30.672;2024-02-26T11:38:23;101055.13;;;1.22;100.00
53758;BME280;39674;59.860;30.672;2024-02-26T11:41:29;101004.22;;;0.82;100.00
53758;BME280;39674;59.860;30.672;2024-02-26T11:44:43;101062.88;;;1.30;100.00
53758;BME280;39674;59.860;30.672;2024-02-26T11:47:58;101013.69;;;0.97;100.00
53758;BME280;39674;59.860;30.672;2024-02-26T11:51:12;100939.38;;;0.59;100.00
53758;BME280;39674;59.860;30.672;2024-02-26T11:54:43;101017.13;;;1.02;100.00
53758;BME280;39674;59.860;30.672;2024-02-26T11:57:23;101060.28;;;1.25;100.00
53758;BME280;39674;59.860;30.672;2024-02-26T12:00:12;101018.84;;;1.00;100.00
53758;BME280;39674;59.860;30.672;2024-02-26T12:02:52;100960.16;;;0.63;100.00
53758;BME280;39674;59.860;30.672;2024-02-26T12:05:42;100949.78;;;0.62;100.00
53758;BME280;39674;59.860;30.672;2024-02-26T12:08:29;100920.38;;;0.51;100.00
53758;BME280;39674;59.860;30.672;2024-02-26T12:11:14;100932.44;;;0.61;100.00
53758;BME280;39674;59.860;30.672;2024-02-26T12:13:52;101057.56;;;1.45;100.00
53758;BME280;39674;59.860;30.672;2024-02-26T12:16:48;101060.22;;;1.36;100.00
53758;BME280;39674;59.860;30.672;2024-02-26T12:19:19;101047.16;;;1.42;100.00
53758;BME280;39674;59.860;30.672;2024-02-26T12:21:54;101029.13;;;1.22;100.00
53758;BME280;39674;59.860;30.672;2024-02-26T12:24:35;101050.69;;;1.35;100.00
53758;BME280;39674;59.860;30.672;2024-02-26T12:27:20;101053.31;;;1.33;100.00
53758;BME280;39674;59.860;30.672;2024-02-26T12:29:56;101048.09;;;1.33;100.00
53758;BME280;39674;59.860;30.672;2024-02-26T12:32:58;100999.72;;;1.07;100.00
53758;BME280;39674;59.860;30.672;2024-02-26T12:35:32;100988.53;;;0.96;100.00
53758;BME280;39674;59.860;30.672;2024-02-26T12:38:08;100936.72;;;0.70;100.00
53758;BME280;39674;59.860;30.672;2024-02-26T12:41:02;100984.22;;;0.95;100.00
53758;BME280;39674;59.860;30.672;2024-02-26T12:44:08;100932.41;;;0.66;100.00
53758;BME280;39674;59.860;30.672;2024-02-26T12:47:04;100980.75;;;0.96;100.00
53758;BME280;39674;59.860;30.672;2024-02-26T12:50:10;100991.94;;;1.06;100.00
53758;BME280;39674;59.860;30.672;2024-02-26T12:52:44;100966.13;;;0.81;100.00
53758;BME280;39674;59.860;30.672;2024-02-26T12:55:25;100921.19;;;0.59;100.00
53758;BME280;39674;59.860;30.672;2024-02-26T12:58:09;101010.09;;;1.14;100.00
53758;BME280;39674;59.860;30.672;2024-02-26T13:00:59;101001.47;;;1.07;100.00
53758;BME280;39674;59.860;30.672;2024-02-26T13:03:33;100949.72;;;0.68;100.00
53758;BME280;39674;59.860;30.672;2024-02-26T13:06:12;101003.19;;;1.06;100.00
53758;BME280;39674;59.860;30.672;2024-02-26T13:08:59;100979.09;;;0.83;100.00
53758;BME280;39674;59.860;30.672;2024-02-26T13:11:31;101000.63;;;1.03;100.00
53758;BME280;39674;59.860;30.672;2024-02-26T13:14:25;101053.31;;;1.33;100.00
53758;BME280;39674;59.860;30.672;2024-02-26T13:17:03;100979.03;;;0.92;100.00
53758;BME280;39674;59.860;30.672;2024-02-26T13:19:36;100928.13;;;0.61;100.00
53758;BME280;39674;59.860;30.672;2024-02-26T13:23:10;100939.38;;;0.65;100.00
53758;BME280;39674;59.860;30.672;2024-02-26T13:26:11;100947.13;;;0.71;100.00
53758;BME280;39674;59.860;30.672;2024-02-26T13:29:21;101011.03;;;1.00;100.00
53758;BME280;39674;59.860;30.672;2024-02-26T13:32:18;101060.25;;;1.31;100.00
53758;BME280;39674;59.860;30.672;2024-02-26T13:36:14;100955.81;;;0.62;100.00
53758;BME280;39674;59.860;30.672;2024-02-26T13:38:11;101062.06;;;1.23;100.00
53758;BME280;39674;59.860;30.672;2024-02-26T13:41:08;100986.88;;;0.84;100.00
53758;BME280;39674;59.860;30.672;2024-02-26T13:43:51;100944.56;;;0.59;100.00
53758;BME280;39674;59.860;30.672;2024-02-26T13:46:43;100948.06;;;0.55;100.00
53758;BME280;39674;59.860;30.672;2024-02-26T13:49:49;101066.34;;;1.28;100.00
53758;BME280;39674;59.860;30.672;2024-02-26T13:52:41;101010.19;;;0.98;100.00
53758;BME280;39674;59.860;30.672;2024-02-26T13:56:08;101014.56;;;0.96;100.00
53758;BME280;39674;59.860;30.672;2024-02-26T13:58:33;100965.31;;;0.71;100.00
53758;BME280;39674;59.860;30.672;2024-02-26T14:01:06;101049.88;;;1.25;100.00
53758;BME280;39674;59.860;30.672;2024-02-26T14:03:48;100987.75;;;0.85;100.00
53758;BME280;39674;59.860;30.672;2024-02-26T14:06:22;100935.94;;;0.57;100.00
53758;BME280;39674;59.860;30.672;2024-02-26T14:08:56;100975.63;;;0.80;100.00
53758;BME280;39674;59.860;30.672;2024-02-26T14:11:31;100958.44;;;0.61;100.00
53758;BME280;39674;59.860;30.672;2024-02-26T14:14:18;101056.00;;;1.24;100.00
53758;BME280;39674;59.860;30.672;2024-02-26T14:16:59;101027.50;;;1.02;100.00
53758;BME280;39674;59.860;30.672;2024-02-26T14:19:33;100968.88;;;0.55;100.00
53758;BME280;39674;59.860;30.672;2024-02-26T14:22:18;100988.66;;;0.76;100.00
53758;BME280;39674;59.860;30.672;2024-02-26T14:25:06;100943.78;;;0.47;100.00
53758;BME280;39674;59.860;30.672;2024-02-26T14:27:55;100968.88;;;0.58;100.00
53758;BME280;39674;59.860;30.672;2024-02-26T14:30:29;100953.34;;;0.45;100.00
53758;BME280;39674;59.860;30.672;2024-02-26T14:33:06;101073.34;;;1.22;100.00
53758;BME280;39674;59.860;30.672;2024-02-26T14:35:45;100972.28;;;0.63;100.00
53758;BME280;39674;59.860;30.672;2024-02-26T14:38:29;100999.06;;;0.77;100.00
53758;BME280;39674;59.860;30.672;2024-02-26T14:41:04;101018.94;;;0.91;100.00
53758;BME280;39674;59.860;30.672;2024-02-26T14:43:49;100966.28;;;0.58;100.00
53758;BME280;39674;59.860;30.672;2024-02-26T14:46:38;100952.44;;;0.51;100.00
53758;BME280;39674;59.860;30.672;2024-02-26T14:49:37;100989.59;;;0.70;100.00
53758;BME280;39674;59.860;30.672;2024-02-26T14:52:34;101085.50;;;1.18;100.00
53758;BME280;39674;59.860;30.672;2024-02-26T14:55:12;100991.38;;;0.62;100.00
53758;BME280;39674;59.860;30.672;2024-02-26T14:57:52;101048.41;;;0.87;100.00
53758;BME280;39674;59.860;30.672;2024-02-26T15:00:39;101025.94;;;0.78;100.00
53758;BME280;39674;59.860;30.672;2024-02-26T15:03:09;100975.88;;;0.43;100.00
53758;BME280;39674;59.860;30.672;2024-02-26T15:06:07;100975.81;;;0.53;100.00
53758;BME280;39674;59.860;30.672;2024-02-26T15:09:09;101025.91;;;0.79;100.00
53758;BME280;39674;59.860;30.672;2024-02-26T15:11:48;100958.59;;;0.36;100.00
53758;BME280;39674;59.860;30.672;2024-02-26T15:14:41;101006.97;;;0.65;100.00
53758;BME280;39674;59.860;30.672;2024-02-26T15:17:55;101002.69;;;0.53;100.00
53758;BME280;39674;59.860;30.672;2024-02-26T15:20:11;100998.41;;;0.41;100.00
53758;BME280;39674;59.860;30.672;2024-02-26T15:23:08;101102.88;;;1.15;100.00
53758;BME280;39674;59.860;30.672;2024-02-26T15:26:04;101025.09;;;0.70;100.00
53758;BME280;39674;59.860;30.672;2024-02-26T15:29:07;101100.28;;;1.11;100.00
53758;BME280;39674;59.860;30.672;2024-02-26T15:32:30;101059.69;;;0.84;100.00
53758;BME280;39674;59.860;30.672;2024-02-26T15:35:06;100989.72;;;0.39;100.00
53758;BME280;39674;59.860;30.672;2024-02-26T15:37:41;101051.91;;;0.79;100.00
53758;BME280;39674;59.860;30.672;2024-02-26T15:40:17;101006.16;;;0.51;100.00
53758;BME280;39674;59.860;30.672;2024-02-26T15:42:50;101039.81;;;0.75;100.00
53758;BME280;39674;59.860;30.672;2024-02-26T15:45:27;101012.16;;;0.62;100.00
53758;BME280;39674;59.860;30.672;2024-02-26T15:48:05;101016.50;;;0.63;100.00
53758;BME280;39674;59.860;30.672;2024-02-26T15:50:48;101103.75;;;1.14;100.00
53758;BME280;39674;59.860;30.672;2024-02-26T15:53:45;100988.88;;;0.40;100.00
53758;BME280;39674;59.860;30.672;2024-02-26T15:56:40;101057.94;;;0.88;100.00
53758;BME280;39674;59.860;30.672;2024-02-26T15:59:15;101027.72;;;0.68;100.00
53758;BME280;39674;59.860;30.672;2024-02-26T16:01:53;100984.56;;;0.41;100.00
53758;BME280;39674;59.860;30.672;2024-02-26T16:04:25;100986.28;;;0.43;100.00
53758;BME280;39674;59.860;30.672;2024-02-26T16:07:02;101076.97;;;0.98;100.00
53758;BME280;39674;59.860;30.672;2024-02-26T16:09:40;100993.22;;;0.38;100.00
53758;BME280;39674;59.860;30.672;2024-02-26T16:12:18;101110.72;;;1.08;100.00
53758;BME280;39674;59.860;30.672;2024-02-26T16:14:55;101071.84;;;0.84;100.00
53758;BME280;39674;59.860;30.672;2024-02-26T16:17:33;100989.75;;;0.41;100.00
53758;BME280;39674;59.860;30.672;2024-02-26T16:20:35;101005.31;;;0.42;100.00
53758;BME280;39674;59.860;30.672;2024-02-26T16:23:22;100991.50;;;0.34;100.00
53758;BME280;39674;59.860;30.672;2024-02-26T16:25:54;101061.53;;;0.71;100.00
53758;BME280;39674;59.860;30.672;2024-02-26T16:28:24;101013.13;;;0.42;100.00
53758;BME280;39674;59.860;30.672;2024-02-26T16:30:59;101040.78;;;0.60;100.00
53758;BME280;39674;59.860;30.672;2024-02-26T16:33:36;101090.00;;;0.93;100.00
53758;BME280;39674;59.860;30.672;2024-02-26T16:36:10;101012.25;;;0.43;100.00
53758;BME280;39674;59.860;30.672;2024-02-26T16:38:45;101121.13;;;1.05;100.00
53758;BME280;39674;59.860;30.672;2024-02-26T16:41:23;101021.81;;;0.38;100.00
53758;BME280;39674;59.860;30.672;2024-02-26T16:43:57;101066.72;;;0.67;100.00
53758;BME280;39674;59.860;30.672;2024-02-26T16:46:33;101010.59;;;0.30;100.00
53758;BME280;39674;59.860;30.672;2024-02-26T16:49:26;101128.06;;;1.06;100.00
53758;BME280;39674;59.860;30.672;2024-02-26T16:52:06;101014.00;;;0.44;100.00
53758;BME280;39674;59.860;30.672;2024-02-26T16:54:41;101076.19;;;0.78;100.00
53758;BME280;39674;59.860;30.672;2024-02-26T16:57:23;101119.44;;;0.98;100.00
53758;BME280;39674;59.860;30.672;2024-02-26T16:59:55;101117.72;;;0.97;100.00
53758;BME280;39674;59.860;30.672;2024-02-26T17:02:36;101023.53;;;0.42;100.00
53758;BME280;39674;59.860;30.672;2024-02-26T17:05:13;101069.31;;;0.73;100.00
53758;BME280;39674;59.860;30.672;2024-02-26T17:07:50;101050.28;;;0.63;100.00
53758;BME280;39674;59.860;30.672;2024-02-26T17:11:06;101128.06;;;1.09;100.00
53758;BME280;39674;59.860;30.672;2024-02-26T17:13:50;101090.88;;;0.90;100.00
53758;BME280;39674;59.860;30.672;2024-02-26T17:16:24;101124.59;;;1.07;100.00
53758;BME280;39674;59.860;30.672;2024-02-26T17:19:16;101119.41;;;1.06;100.00
53758;BME280;39674;59.860;30.672;2024-02-26T17:22:07;101041.63;;;0.64;100.00
53758;BME280;39674;59.860;30.672;2024-02-26T17:24:43;101009.66;;;0.40;100.00
53758;BME280;39674;59.860;30.672;2024-02-26T17:27:28;101077.91;;;0.83;100.00
53758;BME280;39674;59.860;30.672;2024-02-26T17:30:07;101124.59;;;1.10;100.00
53758;BME280;39674;59.860;30.672;2024-02-26T17:32:48;101014.00;;;0.37;100.00
53758;BME280;39674;59.860;30.672;2024-02-26T17:35:56;101045.13;;;0.54;100.00
53758;BME280;39674;59.860;30.672;2024-02-26T17:38:32;101079.72;;;0.71;100.00
53758;BME280;39674;59.860;30.672;2024-02-26T17:41:26;101096.13;;;0.83;100.00
53758;BME280;39674;59.860;30.672;2024-02-26T17:44:13;101019.19;;;0.41;100.00
53758;BME280;39674;59.860;30.672;2024-02-26T17:46:55;101128.09;;;1.03;100.00
53758;BME280;39674;59.860;30.672;2024-02-26T17:49:50;101075.34;;;0.76;100.00
53758;BME280;39674;59.860;30.672;2024-02-26T17:52:41;101022.63;;;0.45;100.00
53758;BME280;39674;59.860;30.672;2024-02-26T17:55:47;101097.00;;;0.85;100.00
53758;BME280;39674;59.860;30.672;2024-02-26T17:58:21;101038.22;;;0.46;100.00
53758;BME280;39674;59.860;30.672;2024-02-26T18:01:23;101058.94;;;0.62;100.00
53758;BME280;39674;59.860;30.672;2024-02-26T18:07:14;101022.63;;;0.50;100.00
53758;BME280;39674;59.860;30.672;2024-02-26T18:10:06;101070.97;;;0.82;100.00
53758;BME280;39674;59.860;30.672;2024-02-26T18:13:02;101029.56;;;0.47;100.00
53758;BME280;39674;59.860;30.672;2024-02-26T18:15:32;101101.28;;;0.89;100.00
53758;BME280;39674;59.860;30.672;2024-02-26T18:18:21;101039.97;;;0.44;100.00
53758;BME280;39674;59.860;30.672;2024-02-26T18:21:07;101034.78;;;0.44;100.00
53758;BME280;39674;59.860;30.672;2024-02-26T18:23:58;101150.56;;;1.17;100.00
53758;BME280;39674;59.860;30.672;2024-02-26T18:26:36;101037.38;;;0.46;100.00
53758;BME280;39674;59.860;30.672;2024-02-26T18:29:11;101108.22;;;0.91;100.00
53758;BME280;39674;59.860;30.672;2024-02-26T18:31:53;101033.00;;;0.46;100.00
53758;BME280;39674;59.860;30.672;2024-02-26T18:34:45;101030.44;;;0.45;100.00
53758;BME280;39674;59.860;30.672;2024-02-26T18:37:42;101122.91;;;1.00;100.00
53758;BME280;39674;59.860;30.672;2024-02-26T18:40:23;101117.75;;;0.91;100.00
53758;BME280;39674;59.860;30.672;2024-02-26T18:43:15;101124.66;;;0.95;100.00
53758;BME280;39674;59.860;30.672;2024-02-26T18:45:58;101152.28;;;1.18;100.00
53758;BME280;39674;59.860;30.672;2024-02-26T18:48:36;101109.09;;;0.86;100.00
53758;BME280;39674;59.860;30.672;2024-02-26T18:51:20;101043.41;;;0.46;100.00
53758;BME280;39674;59.860;30.672;2024-02-26T18:54:05;101141.97;;;1.02;100.00
53758;BME280;39674;59.860;30.672;2024-02-26T18:56:40;101049.47;;;0.50;100.00
53758;BME280;39674;59.860;30.672;2024-02-26T18:59:43;101059.81;;;0.56;100.00
53758;BME280;39674;59.860;30.672;2024-02-26T19:02:29;101169.63;;;1.19;100.00
53758;BME280;39674;59.860;30.672;2024-02-26T19:05:30;101156.69;;;1.06;100.00
53758;BME280;39674;59.860;30.672;2024-02-26T19:08:24;101053.75;;;0.59;100.00
53758;BME280;39674;59.860;30.672;2024-02-26T19:11:25;101122.94;;;0.97;100.00
53758;BME280;39674;59.860;30.672;2024-02-26T19:14:03;101064.19;;;0.53;100.00
53758;BME280;39674;59.860;30.672;2024-02-26T19:17:08;101070.25;;;0.58;100.00
53758;BME280;39674;59.860;30.672;2024-02-26T19:20:38;101077.97;;;0.70;100.00
53758;BME280;39674;59.860;30.672;2024-02-26T19:23:49;101084.03;;;0.71;100.00
53758;BME280;39674;59.860;30.672;2024-02-26T19:26:39;101193.84;;;1.36;100.00
53758;BME280;39674;59.860;30.672;2024-02-26T19:29:20;101081.44;;;0.69;100.00
53758;BME280;39674;59.860;30.672;2024-02-26T19:32:27;101198.16;;;1.39;100.00
53758;BME280;39674;59.860;30.672;2024-02-26T19:35:03;101089.25;;;0.69;100.00
53758;BME280;39674;59.860;30.672;2024-02-26T19:37:50;101168.78;;;1.15;100.00
53758;BME280;39674;59.860;30.672;2024-02-26T19:40:36;101209.44;;;1.39;100.00
53758;BME280;39674;59.860;30.672;2024-02-26T19:43:29;101084.91;;;0.71;100.00
53758;BME280;39674;59.860;30.672;2024-02-26T19:46:09;101164.47;;;1.16;100.00
53758;BME280;39674;59.860;30.672;2024-02-26T19:48:43;101195.53;;;1.37;100.00
53758;BME280;39674;59.860;30.672;2024-02-26T19:52:23;101133.34;;;0.97;100.00
53758;BME280;39674;59.860;30.672;2024-02-26T19:55:22;101122.97;;;0.91;100.00
53758;BME280;39674;59.860;30.672;2024-02-26T19:58:09;101211.16;;;1.37;100.00
53758;BME280;39674;59.860;30.672;2024-02-26T20:00:58;101206.81;;;1.39;100.00
53758;BME280;39674;59.860;30.672;2024-02-26T20:03:52;101135.94;;;0.94;100.00
53758;BME280;39674;59.860;30.672;2024-02-26T20:06:39;101110.91;;;0.71;100.00
53758;BME280;39674;59.860;30.672;2024-02-26T20:09:13;101158.44;;;1.06;100.00
53758;BME280;39674;59.860;30.672;2024-02-26T20:15:37;101221.56;;;1.43;100.00
53758;BME280;39674;59.860;30.672;2024-02-26T20:19:21;101107.41;;;0.72;100.00
53758;BME280;39674;59.860;30.672;2024-02-26T20:23:13;101110.88;;;0.74;100.00
53758;BME280;39674;59.860;30.672;2024-02-26T20:26:59;101218.09;;;1.41;100.00
53758;BME280;39674;59.860;30.672;2024-02-26T20:29:55;101211.16;;;1.37;100.00
53758;BME280;39674;59.860;30.672;2024-02-26T20:33:18;101154.13;;;1.03;100.00
53758;BME280;39674;59.860;30.672;2024-02-26T20:36:51;101096.16;;;0.75;100.00
53758;BME280;39674;59.860;30.672;2024-02-26T20:43:12;101093.56;;;0.73;100.00
53758;BME280;39674;59.860;30.672;2024-02-26T20:46:49;101112.59;;;0.82;100.00
53758;BME280;39674;59.860;30.672;2024-02-26T20:53:12;101223.28;;;1.48;100.00
53758;BME280;39674;59.860;30.672;2024-02-26T20:56:58;101206.81;;;1.39;100.00
53758;BME280;39674;59.860;30.672;2024-02-26T21:00:00;101225.00;;;1.49;100.00
53758;BME280;39674;59.860;30.672;2024-02-26T21:02:51;101177.44;;;1.22;100.00
53758;BME280;39674;59.860;30.672;2024-02-26T21:07:26;101154.06;;;1.12;100.00